Time;durP1;ratioP1;P1;durP2;ratioP2;P2;SDS_P1;SDS_P2;PMS_P1;PMS_P2;Temp;Humidity;BMP_temperature;BMP_pressure;BME280_temperature;BME280_humidity;BME280_pressure;Samples;Min_cycle;Max_cycle;Signal;HPM_P1;HPM_P2
2022/10/05 00:02:20;;;;;;;;;14.60;14.00;;;;;13.64;61.53;99587.69;6238150;28;96332;-68
2022/10/05 00:05:29;;;;;;;;;14.00;13.75;;;;;13.63;61.07;99583.34;6239127;27;96337;-68
2022/10/05 00:08:35;;;;;;;;;15.00;14.00;;;;;13.60;61.18;99581.06;6239448;28;96811;-68
2022/10/05 00:11:38;;;;;;;;;16.00;15.00;;;;;13.56;61.34;99576.31;6238367;28;96634;-67
2022/10/05 00:14:43;;;;;;;;;15.00;12.20;;;;;13.55;61.80;99583.59;6238049;28;96369;-66
2022/10/05 00:17:46;;;;;;;;;15.00;14.50;;;;;13.56;61.88;99582.56;6238801;28;96275;-66
2022/10/05 00:20:50;;;;;;;;;14.50;13.50;;;;;13.52;61.37;99578.66;6224389;28;97606;-66
2022/10/05 00:23:57;;;;;;;;;14.20;12.80;;;;;13.51;61.51;99570.72;6229971;27;96841;-66
2022/10/05 00:27:01;;;;;;;;;18.00;16.00;;;;;13.49;61.57;99568.25;6238105;28;96558;-66
2022/10/05 00:30:13;;;;;;;;;16.00;15.00;;;;;13.50;61.56;99566.38;6231846;28;96961;-66
2022/10/05 00:33:17;;;;;;;;;16.00;15.40;;;;;13.48;61.64;99560.38;6238089;28;96219;-66
2022/10/05 00:36:21;;;;;;;;;17.00;16.00;;;;;13.44;61.70;99559.97;6225712;28;96409;-66
2022/10/05 00:39:26;;;;;;;;;17.00;14.00;;;;;13.45;61.78;99558.91;6238330;28;96395;-66
2022/10/05 00:42:41;;;;;;;;;15.00;15.00;;;;;13.43;61.80;99559.16;6202556;28;97023;-66
2022/10/05 00:45:50;;;;;;;;;14.60;14.00;;;;;13.45;61.88;99558.91;6211646;28;97304;-67
2022/10/05 00:49:03;;;;;;;;;15.00;14.00;;;;;13.44;61.96;99557.25;6237290;28;96221;-67
2022/10/05 00:52:20;;;;;;;;;16.75;16.75;;;;;13.43;61.84;99552.91;6238303;28;96245;-67
2022/10/05 00:55:37;;;;;;;;;17.00;15.00;;;;;13.41;61.81;99557.72;6237475;28;96440;-66
2022/10/05 00:58:54;;;;;;;;;16.00;15.00;;;;;13.39;62.19;99559.78;6230773;28;97696;-65
2022/10/05 01:02:02;;;;;;;;;14.00;12.80;;;;;13.38;61.82;99571.72;6221649;28;97394;-66
2022/10/05 01:05:12;;;;;;;;;15.00;14.50;;;;;13.36;62.20;99568.38;6235169;28;96545;-66
2022/10/05 01:08:30;;;;;;;;;17.40;15.40;;;;;13.36;62.13;99565.66;6238278;28;96396;-66
2022/10/05 01:11:43;;;;;;;;;13.00;13.00;;;;;13.39;62.55;99568.75;6234160;28;96484;-66
2022/10/05 01:14:55;;;;;;;;;17.40;13.80;;;;;13.43;62.56;99574.56;6216929;28;96720;-66
2022/10/05 01:18:05;;;;;;;;;13.25;12.00;;;;;13.43;62.58;99567.28;6233892;28;96440;-66
2022/10/05 01:21:17;;;;;;;;;14.20;12.60;;;;;13.45;62.52;99561.63;6234709;28;96369;-66
2022/10/05 01:24:40;;;;;;;;;14.00;13.00;;;;;13.50;62.23;99553.66;6235583;28;96222;-66
2022/10/05 01:27:54;;;;;;;;;10.00;9.40;;;;;13.51;62.68;99557.19;6237220;28;96372;-67
2022/10/05 01:31:08;;;;;;;;;10.20;10.00;;;;;13.52;62.51;99553.44;6236556;28;96433;-67
2022/10/05 01:34:21;;;;;;;;;8.80;8.40;;;;;13.57;62.28;99553.59;6222381;28;96216;-66
2022/10/05 01:37:30;;;;;;;;;13.00;12.00;;;;;13.61;61.90;99552.09;6237672;27;96551;-67
2022/10/05 01:40:39;;;;;;;;;9.00;8.00;;;;;13.60;61.86;99536.88;6208969;28;96714;-66
2022/10/05 01:43:48;;;;;;;;;10.40;10.00;;;;;13.61;62.28;99552.91;6232208;27;96503;-66
2022/10/05 01:46:58;;;;;;;;;9.00;9.00;;;;;13.62;62.07;99543.75;6236142;28;96468;-67
2022/10/05 01:50:08;;;;;;;;;10.80;10.80;;;;;13.64;62.06;99547.03;6229378;28;96258;-66
2022/10/05 01:53:24;;;;;;;;;10.50;10.00;;;;;13.67;61.99;99540.34;6222018;28;96228;-66
2022/10/05 01:56:39;;;;;;;;;11.00;10.50;;;;;13.67;62.09;99535.75;6221841;28;96597;-66
2022/10/05 01:59:59;;;;;;;;;9.75;9.00;;;;;13.69;62.16;99541.78;6236028;28;96437;-66
2022/10/05 02:03:08;;;;;;;;;8.60;7.60;;;;;13.70;62.12;99535.31;6215705;28;96320;-66
2022/10/05 02:06:17;;;;;;;;;14.00;12.00;;;;;13.72;61.82;99530.50;6235991;28;96528;-66
2022/10/05 02:09:25;;;;;;;;;9.00;8.60;;;;;13.76;61.54;99528.97;6227046;28;96957;-68
2022/10/05 02:12:34;;;;;;;;;9.20;9.20;;;;;13.79;61.66;99523.09;6212339;28;96321;-67
2022/10/05 02:15:45;;;;;;;;;9.00;8.00;;;;;13.77;61.63;99525.22;6226962;28;96779;-66
2022/10/05 02:18:52;;;;;;;;;10.40;10.00;;;;;13.79;61.60;99525.81;6218460;28;96370;-66
2022/10/05 02:22:04;;;;;;;;;8.40;8.40;;;;;13.83;61.31;99527.00;6236869;28;96365;-66
2022/10/05 02:25:13;;;;;;;;;7.40;7.00;;;;;13.86;61.18;99540.13;6218617;28;96689;-66
2022/10/05 02:28:22;;;;;;;;;11.00;9.00;;;;;13.87;61.22;99536.38;6203364;28;98349;-66
2022/10/05 02:31:32;;;;;;;;;9.00;7.00;;;;;13.88;61.08;99534.44;6221845;28;97027;-66
2022/10/05 02:34:38;;;;;;;;;10.00;9.00;;;;;13.87;60.94;99516.56;6240676;28;96347;-66
2022/10/05 02:38:06;;;;;;;;;8.00;8.00;;;;;13.84;60.80;99520.53;6222529;28;96485;-66
2022/10/05 02:41:20;;;;;;;;;9.00;9.00;;;;;13.85;60.93;99526.78;6206421;28;96260;-66
2022/10/05 02:44:30;;;;;;;;;9.00;9.00;;;;;13.85;60.93;99533.03;6219957;28;96533;-67
2022/10/05 02:47:44;;;;;;;;;9.60;9.60;;;;;13.85;60.62;99527.63;6214448;28;96270;-67
2022/10/05 02:50:54;;;;;;;;;8.00;8.00;;;;;13.82;60.80;99525.38;6239234;28;96409;-67
2022/10/05 02:54:11;;;;;;;;;11.00;11.00;;;;;13.79;60.70;99517.69;6214996;28;96192;-66
2022/10/05 02:57:24;;;;;;;;;8.00;8.00;;;;;13.79;60.63;99504.13;6219985;28;96851;-67
2022/10/05 03:00:34;;;;;;;;;9.00;8.00;;;;;13.79;60.83;99508.72;6219998;28;96417;-68
2022/10/05 03:03:44;;;;;;;;;8.00;7.00;;;;;13.75;60.92;99508.34;6221295;28;96524;-66
2022/10/05 03:06:55;;;;;;;;;10.60;10.00;;;;;13.63;60.32;99506.63;6223067;28;96985;-66
2022/10/05 03:10:09;;;;;;;;;9.40;9.40;;;;;13.39;59.57;99501.03;6227724;28;96984;-66
2022/10/05 03:13:25;;;;;;;;;10.00;9.75;;;;;13.21;59.95;99511.03;6239523;28;96506;-66
2022/10/05 03:16:39;;;;;;;;;13.50;12.00;;;;;13.11;60.25;99510.69;6238854;28;97042;-66
2022/10/05 03:20:02;;;;;;;;;11.00;10.00;;;;;13.02;60.66;99510.16;6211874;28;96305;-66
2022/10/05 03:23:14;;;;;;;;;11.00;10.00;;;;;12.94;60.49;99524.81;6236615;28;96293;-66
2022/10/05 03:26:32;;;;;;;;;10.00;10.00;;;;;12.90;60.45;99514.63;6237768;28;96698;-66
2022/10/05 03:29:44;;;;;;;;;10.00;8.00;;;;;12.83;60.61;99511.97;6217475;28;96460;-68
2022/10/05 03:32:59;;;;;;;;;13.00;12.00;;;;;12.77;60.64;99515.56;6200570;28;96651;-68
2022/10/05 03:36:16;;;;;;;;;11.00;10.60;;;;;12.68;60.54;99508.78;6220294;28;96649;-67
2022/10/05 03:39:26;;;;;;;;;12.00;11.20;;;;;12.59;60.87;99518.22;6220562;28;96596;-68
2022/10/05 03:42:38;;;;;;;;;11.00;10.00;;;;;12.51;61.24;99523.91;6215159;28;98104;-66
2022/10/05 03:45:54;;;;;;;;;12.00;11.00;;;;;12.44;60.76;99536.63;6216013;28;97522;-67
2022/10/05 03:49:06;;;;;;;;;10.75;10.75;;;;;12.40;60.90;99541.66;6230905;28;97675;-67
2022/10/05 03:52:16;;;;;;;;;10.40;9.60;;;;;12.37;61.52;99533.94;6192849;28;99139;-67
2022/10/05 03:55:29;;;;;;;;;12.40;12.00;;;;;12.31;61.54;99537.53;6213911;28;96981;-67
2022/10/05 03:58:40;;;;;;;;;13.00;12.00;;;;;12.30;61.48;99562.09;6219009;28;97584;-67
2022/10/05 04:01:49;;;;;;;;;11.50;11.00;;;;;12.28;61.85;99558.75;6216610;28;96308;-67
2022/10/05 04:05:02;;;;;;;;;16.00;14.40;;;;;12.26;61.77;99558.16;6215854;28;96742;-66
2022/10/05 04:08:11;;;;;;;;;9.20;8.60;;;;;12.20;62.26;99559.84;6219625;28;97626;-66
2022/10/05 04:11:21;;;;;;;;;11.00;10.00;;;;;12.10;62.92;99544.09;6229819;28;96340;-66
2022/10/05 04:14:32;;;;;;;;;13.00;12.00;;;;;11.94;62.66;99516.72;6228899;28;96253;-66
2022/10/05 04:17:42;;;;;;;;;13.00;13.00;;;;;11.87;62.85;99518.63;6214331;28;96964;-67
2022/10/05 04:20:50;;;;;;;;;11.00;11.00;;;;;11.84;62.65;99510.94;6215073;28;96463;-67
2022/10/05 04:24:00;;;;;;;;;13.80;12.00;;;;;11.84;62.89;99500.13;6214205;28;98162;-65
2022/10/05 04:27:11;;;;;;;;;12.00;12.00;;;;;11.84;63.01;99479.34;6236118;28;96585;-66
2022/10/05 04:30:17;;;;;;;;;11.00;11.00;;;;;11.76;62.78;99471.50;6234111;28;96858;-66
2022/10/05 04:33:23;;;;;;;;;12.00;11.00;;;;;11.89;62.81;99493.06;6236095;28;96841;-66
2022/10/05 04:36:33;;;;;;;;;13.40;12.00;;;;;11.90;63.16;99483.91;6214447;28;97482;-66
2022/10/05 04:39:47;;;;;;;;;13.50;13.50;;;;;11.91;63.13;99482.88;6238491;28;96487;-66
2022/10/05 04:43:02;;;;;;;;;9.40;9.40;;;;;11.98;62.96;99485.50;6236497;28;96373;-67
2022/10/05 04:46:23;;;;;;;;;13.40;11.40;;;;;12.06;62.96;99477.16;6233640;28;96959;-67
2022/10/05 04:49:58;;;;;;;;;9.60;9.00;;;;;12.17;62.67;99483.78;6209204;28;96848;-67
2022/10/05 04:53:13;;;;;;;;;11.25;10.00;;;;;12.27;62.90;99505.72;6194365;28;96771;-67
2022/10/05 04:56:23;;;;;;;;;14.00;12.00;;;;;12.37;63.18;99500.66;6214963;28;96878;-67
2022/10/05 04:59:44;;;;;;;;;11.00;10.00;;;;;12.45;63.19;99493.13;6212445;28;97017;-67
2022/10/05 05:03:06;;;;;;;;;12.60;12.00;;;;;12.44;63.03;99480.66;6225763;28;96784;-66
2022/10/05 05:06:24;;;;;;;;;13.60;13.00;;;;;12.50;62.73;99482.50;6233827;28;97222;-66
2022/10/05 05:09:50;;;;;;;;;9.20;9.00;;;;;12.51;62.52;99486.84;6217469;28;96360;-67
2022/10/05 05:13:09;;;;;;;;;13.00;12.00;;;;;12.54;62.45;99491.81;6219846;28;96919;-68
2022/10/05 05:16:25;;;;;;;;;11.75;11.00;;;;;12.59;62.41;99488.44;6229736;28;96221;-66
2022/10/05 05:19:41;;;;;;;;;10.60;10.00;;;;;12.65;62.52;99492.16;6220008;28;96485;-66
2022/10/05 05:22:51;;;;;;;;;10.00;9.00;;;;;12.78;62.44;99497.47;6234440;28;96194;-67
2022/10/05 05:26:07;;;;;;;;;8.50;8.00;;;;;12.97;62.49;99500.00;6220147;28;96368;-66
2022/10/05 05:29:21;;;;;;;;;7.50;7.00;;;;;13.12;62.11;99496.97;6202523;28;96894;-66
2022/10/05 05:32:37;;;;;;;;;8.40;7.40;;;;;13.35;61.64;99499.00;6237953;28;96349;-66
2022/10/05 05:36:19;;;;;;;;;11.00;9.00;;;;;13.49;61.04;99505.13;6236448;28;96219;-66
2022/10/05 05:39:33;;;;;;;;;9.00;8.00;;;;;13.62;60.76;99494.97;6214183;28;96585;-66
2022/10/05 05:42:48;;;;;;;;;8.00;8.00;;;;;13.73;60.40;99505.03;6218590;28;96451;-66
2022/10/05 05:45:59;;;;;;;;;10.00;7.50;;;;;13.80;60.29;99507.66;6235177;28;96260;-66
2022/10/05 05:49:08;;;;;;;;;10.00;9.40;;;;;13.95;60.00;99515.41;6215698;28;96866;-65
2022/10/05 05:52:18;;;;;;;;;10.00;9.50;;;;;14.15;60.01;99507.84;6213296;28;97744;-66
2022/10/05 05:55:27;;;;;;;;;10.00;9.25;;;;;14.36;59.88;99525.50;6234005;28;96357;-66
2022/10/05 05:58:44;;;;;;;;;11.40;11.00;;;;;14.56;59.13;99507.06;6217400;28;96450;-68
2022/10/05 06:01:56;;;;;;;;;8.40;8.40;;;;;14.78;58.57;99496.47;6220883;28;96440;-66
2022/10/05 06:05:09;;;;;;;;;11.80;10.80;;;;;14.91;58.19;99488.09;6206413;28;97245;-66
2022/10/05 06:08:19;;;;;;;;;10.50;9.50;;;;;15.04;56.39;99474.31;6223494;28;97544;-67
2022/10/05 06:11:30;;;;;;;;;11.00;10.60;;;;;15.15;54.83;99482.44;6223692;28;96286;-66
2022/10/05 06:14:40;;;;;;;;;12.00;9.00;;;;;15.49;55.36;99509.84;6223422;28;96448;-66
2022/10/05 06:17:51;;;;;;;;;8.00;7.00;;;;;15.76;54.46;99516.44;6223791;28;96503;-67
2022/10/05 06:20:59;;;;;;;;;8.00;7.00;;;;;16.07;53.97;99519.78;6241347;28;96296;-68
2022/10/05 06:24:12;;;;;;;;;5.60;5.60;;;;;16.26;52.93;99516.63;6218910;28;96963;-68
2022/10/05 06:27:26;;;;;;;;;7.00;6.00;;;;;16.47;52.79;99521.38;6210513;28;96620;-66
2022/10/05 06:30:44;;;;;;;;;7.00;6.40;;;;;16.65;52.32;99533.16;6215490;28;96257;-67
2022/10/05 06:33:51;;;;;;;;;8.00;8.00;;;;;16.78;51.87;99535.56;6215278;28;96300;-67
2022/10/05 06:37:05;;;;;;;;;8.80;8.20;;;;;16.93;51.57;99545.88;6215133;28;96381;-67
2022/10/05 06:40:21;;;;;;;;;10.33;9.33;;;;;17.07;50.60;99553.47;6216369;28;96363;-67
2022/10/05 06:43:51;;;;;;;;;11.40;10.00;;;;;17.41;49.59;99548.00;6214604;28;96444;-66
2022/10/05 06:47:23;;;;;;;;;11.00;9.50;;;;;18.52;47.00;99554.94;6191124;28;96267;-67
2022/10/05 06:50:52;;;;;;;;;11.00;9.80;;;;;19.35;45.36;99557.03;6191476;28;96294;-67
2022/10/05 06:54:42;;;;;;;;;11.00;9.00;;;;;22.26;40.22;99550.69;6172466;28;96307;-66
2022/10/05 06:58:02;;;;;;;;;9.40;8.60;;;;;25.16;34.00;99536.41;6197706;28;97233;-67
2022/10/05 07:01:14;;;;;;;;;10.00;10.00;;;;;26.89;30.50;99542.88;6197400;28;96504;-66
2022/10/05 07:04:33;;;;;;;;;8.00;8.00;;;;;28.24;28.79;99558.19;6215702;28;96489;-67
2022/10/05 07:07:51;;;;;;;;;9.00;8.00;;;;;28.90;27.29;99554.22;6197291;28;96811;-67
2022/10/05 07:11:15;;;;;;;;;9.00;7.60;;;;;29.36;26.28;99547.19;6198065;28;96264;-67
2022/10/05 07:14:34;;;;;;;;;9.00;9.00;;;;;30.94;24.61;99554.91;6197457;28;96487;-67
2022/10/05 07:17:50;;;;;;;;;7.00;6.40;;;;;32.85;22.76;99567.13;6197318;28;97123;-68
2022/10/05 07:21:01;;;;;;;;;8.60;7.60;;;;;34.37;20.79;99553.72;6212811;28;96506;-68
2022/10/05 07:24:23;;;;;;;;;7.00;7.00;;;;;35.42;20.25;99548.84;6188722;28;96599;-68
2022/10/05 07:27:32;;;;;;;;;5.50;5.50;;;;;35.00;18.98;99547.94;6190686;28;97210;-67
2022/10/05 07:30:45;;;;;;;;;6.50;5.00;;;;;34.66;20.05;99538.38;6205493;28;96844;-67
2022/10/05 07:33:59;;;;;;;;;6.00;5.00;;;;;34.09;20.19;99522.25;6170191;28;96568;-67
2022/10/05 07:40:36;;;;;;;;;7.00;6.00;;;;;31.96;22.81;99509.63;6169970;28;96585;-67
2022/10/05 07:43:47;;;;;;;;;5.00;5.00;;;;;31.10;23.30;99511.41;6204619;28;97152;-67
2022/10/05 07:47:12;;;;;;;;;4.80;4.00;;;;;30.86;22.58;99517.66;6213108;28;97204;-68
2022/10/05 07:50:22;;;;;;;;;4.25;4.00;;;;;30.19;23.39;99494.72;6214733;28;96971;-68
2022/10/05 07:53:32;;;;;;;;;5.80;4.20;;;;;30.10;23.64;99508.69;6227723;28;97890;-68
2022/10/05 07:56:42;;;;;;;;;5.00;5.00;;;;;30.20;23.97;99501.94;6219629;28;96633;-68
2022/10/05 07:59:56;;;;;;;;;5.00;5.00;;;;;29.60;24.97;99506.59;6218230;28;97007;-68
2022/10/05 08:03:09;;;;;;;;;5.00;5.00;;;;;29.63;25.19;99517.03;6219902;28;96289;-67
2022/10/05 08:06:27;;;;;;;;;5.00;5.00;;;;;29.29;24.51;99512.38;6238798;28;96271;-68
2022/10/05 08:09:38;;;;;;;;;5.40;5.40;;;;;29.77;24.57;99516.00;6238851;28;95937;-67
2022/10/05 08:12:56;;;;;;;;;4.80;4.80;;;;;30.23;23.74;99510.41;6238830;28;96313;-67
2022/10/05 08:16:04;;;;;;;;;4.60;4.00;;;;;30.49;23.12;99507.47;6237821;28;96339;-67
2022/10/05 08:19:17;;;;;;;;;3.00;3.00;;;;;29.99;24.12;99513.81;6220644;28;96632;-67
2022/10/05 08:22:25;;;;;;;;;6.00;4.75;;;;;30.24;23.28;99511.22;6238079;28;96432;-67
2022/10/05 08:25:41;;;;;;;;;4.00;4.00;;;;;30.55;22.97;99506.09;6237802;28;96494;-68
2022/10/05 08:28:53;;;;;;;;;5.00;5.00;;;;;31.12;22.57;99513.84;6239188;28;96462;-67
2022/10/05 08:32:02;;;;;;;;;4.00;4.00;;;;;31.44;21.90;99515.78;6239243;28;97017;-67
2022/10/05 08:35:23;;;;;;;;;4.40;4.00;;;;;31.37;21.40;99516.34;6239127;28;96218;-67
2022/10/05 08:38:32;;;;;;;;;4.00;3.00;;;;;31.52;21.41;99506.50;6237314;28;96808;-68
2022/10/05 08:41:59;;;;;;;;;4.00;4.00;;;;;31.27;22.33;99518.78;6236879;28;96227;-68
2022/10/05 08:45:46;;;;;;;;;4.00;4.00;;;;;31.18;22.23;99530.00;6236155;28;96739;-68
2022/10/05 08:49:09;;;;;;;;;3.60;3.00;;;;;31.22;22.02;99527.34;6229162;28;96686;-67
2022/10/05 08:52:33;;;;;;;;;6.00;5.80;;;;;30.40;23.19;99529.75;6236945;28;96584;-69
2022/10/05 08:55:43;;;;;;;;;5.00;5.00;;;;;29.66;23.55;99526.69;6238587;28;97709;-68
2022/10/05 08:59:14;;;;;;;;;5.00;4.00;;;;;29.02;23.73;99523.03;6219920;28;98730;-67
2022/10/05 09:02:31;;;;;;;;;4.60;4.60;;;;;28.50;25.95;99524.94;6238510;28;96405;-69
2022/10/05 09:05:59;;;;;;;;;5.00;5.00;;;;;28.06;26.67;99529.53;6238602;28;96836;-69
2022/10/05 09:09:35;;;;;;;;;7.00;6.00;;;;;27.35;26.56;99512.09;6238404;28;96441;-69
2022/10/05 09:13:17;;;;;;;;;4.00;4.00;;;;;26.99;27.15;99503.06;6186810;28;96647;-69
2022/10/05 09:17:01;;;;;;;;;4.00;4.00;;;;;26.58;28.33;99504.03;6197479;28;96383;-67
2022/10/05 09:20:22;;;;;;;;;4.20;4.20;;;;;26.37;28.41;99515.84;6197905;28;96207;-67
2022/10/05 09:23:39;;;;;;;;;3.00;3.00;;;;;26.23;28.40;99519.47;6237777;28;96602;-68
2022/10/05 09:26:44;;;;;;;;;5.00;4.00;;;;;26.11;28.48;99515.53;6238679;28;96403;-68
2022/10/05 09:30:21;;;;;;;;;4.00;3.00;;;;;26.01;28.91;99519.34;6238255;28;96314;-68
2022/10/05 09:33:55;;;;;;;;;4.00;4.00;;;;;26.07;29.67;99529.16;6238026;28;96429;-67
2022/10/05 09:37:46;;;;;;;;;4.00;3.00;;;;;26.19;29.00;99528.66;6237434;27;96507;-69
2022/10/05 09:41:19;;;;;;;;;4.00;4.00;;;;;26.27;29.20;99531.53;6197998;28;96977;-69
2022/10/05 09:44:49;;;;;;;;;5.00;4.20;;;;;26.18;29.58;99513.19;6236763;28;96451;-68
2022/10/05 09:48:24;;;;;;;;;5.40;5.00;;;;;26.16;30.12;99504.38;6217755;28;96709;-67
2022/10/05 09:52:05;;;;;;;;;4.00;3.00;;;;;26.10;29.86;99511.97;6202328;28;96446;-68
2022/10/05 09:55:41;;;;;;;;;3.20;3.00;;;;;25.80;29.88;99518.13;6237927;28;97016;-67
2022/10/05 09:59:22;;;;;;;;;4.00;4.00;;;;;25.72;30.21;99524.34;6237319;28;96445;-68
2022/10/05 10:02:44;;;;;;;;;7.00;6.00;;;;;25.87;30.28;99516.59;6235176;28;96535;-68
2022/10/05 10:06:17;;;;;;;;;6.00;5.40;;;;;26.07;29.90;99514.53;6235325;28;96547;-68
2022/10/05 10:09:31;;;;;;;;;4.60;4.60;;;;;26.06;29.69;99510.13;6218810;28;96514;-68
2022/10/05 10:12:56;;;;;;;;;6.00;6.00;;;;;25.79;30.11;99516.50;6235266;28;96458;-68
2022/10/05 10:16:23;;;;;;;;;4.00;4.00;;;;;25.71;30.64;99518.00;6236342;28;96248;-68
2022/10/05 10:19:51;;;;;;;;;5.00;5.00;;;;;25.51;30.56;99484.44;6237459;28;96573;-68
2022/10/05 10:23:15;;;;;;;;;5.00;5.00;;;;;25.72;30.46;99505.03;6236859;28;96532;-68
2022/10/05 10:26:51;;;;;;;;;6.00;5.40;;;;;25.79;30.40;99505.44;6219239;28;96523;-68
2022/10/05 10:30:33;;;;;;;;;5.67;5.00;;;;;25.87;30.79;99502.78;6236726;28;96460;-68
2022/10/05 10:34:18;;;;;;;;;5.00;4.20;;;;;25.87;30.64;99491.72;6209787;28;96274;-68
2022/10/05 10:37:39;;;;;;;;;5.20;5.00;;;;;25.85;31.02;99490.41;6203679;28;96732;-68
2022/10/05 10:40:58;;;;;;;;;6.00;6.00;;;;;25.93;31.16;99492.44;6212354;28;96892;-67
2022/10/05 10:44:36;;;;;;;;;3.00;3.00;;;;;25.97;30.99;99493.47;6211920;28;96618;-67
2022/10/05 10:47:51;;;;;;;;;6.00;5.00;;;;;26.06;30.83;99510.94;6212172;28;96526;-68
2022/10/05 10:51:14;;;;;;;;;6.00;6.00;;;;;26.12;30.32;99503.38;6219900;28;96291;-69
2022/10/05 10:54:39;;;;;;;;;6.00;6.00;;;;;26.58;30.28;99512.34;6240684;28;96509;-67
2022/10/05 10:58:01;;;;;;;;;5.80;5.20;;;;;27.36;29.10;99507.38;6238804;28;96371;-67
2022/10/05 11:01:18;;;;;;;;;4.40;4.40;;;;;28.17;27.89;99516.25;6195976;28;96688;-68
2022/10/05 11:04:45;;;;;;;;;5.75;5.75;;;;;28.20;26.69;99512.84;6240967;28;96315;-68
2022/10/05 11:08:08;;;;;;;;;5.40;5.00;;;;;28.17;27.42;99483.78;6227973;28;96325;-68
2022/10/05 11:11:49;;;;;;;;;6.00;5.00;;;;;28.53;28.00;99504.88;6216219;28;96423;-68
2022/10/05 11:15:23;;;;;;;;;5.00;4.00;;;;;28.70;27.26;99493.78;6215172;28;96320;-69
2022/10/05 11:18:45;;;;;;;;;4.20;4.00;;;;;28.79;27.29;99491.84;6238942;28;96401;-69
2022/10/05 11:22:03;;;;;;;;;5.00;5.00;;;;;28.79;27.61;99500.16;6236942;28;96545;-68
2022/10/05 11:25:43;;;;;;;;;4.50;3.50;;;;;28.92;27.16;99498.38;6238119;28;96362;-69
2022/10/05 11:29:07;;;;;;;;;5.00;5.00;;;;;29.03;27.02;99494.13;6218336;28;96322;-68
2022/10/05 11:32:46;;;;;;;;;4.00;4.00;;;;;29.23;26.46;99494.25;6239005;28;96601;-67
2022/10/05 11:36:18;;;;;;;;;5.00;5.00;;;;;29.56;26.18;99491.75;6238922;28;96560;-68
2022/10/05 11:39:37;;;;;;;;;5.00;5.00;;;;;29.73;26.10;99496.41;6225055;28;96821;-68
2022/10/05 11:43:16;;;;;;;;;5.00;4.00;;;;;29.58;26.09;99492.22;6237708;28;96762;-68
2022/10/05 11:46:27;;;;;;;;;4.20;4.00;;;;;29.39;26.12;99488.19;6186056;28;96324;-69
2022/10/05 11:49:41;;;;;;;;;6.00;6.00;;;;;29.13;26.93;99491.00;6214071;28;96525;-69
2022/10/05 11:52:53;;;;;;;;;6.50;5.00;;;;;29.06;27.17;99485.97;6214943;28;96773;-69
2022/10/05 11:56:07;;;;;;;;;5.33;5.33;;;;;29.19;27.86;99481.34;6221111;28;96499;-67
2022/10/05 11:59:19;;;;;;;;;6.00;6.00;;;;;29.03;27.71;99481.03;6239420;27;96655;-68
2022/10/05 12:02:46;;;;;;;;;7.00;6.75;;;;;28.68;27.77;99480.25;6239843;28;98054;-68
2022/10/05 12:06:08;;;;;;;;;5.50;5.00;;;;;28.39;28.50;99480.88;6238123;28;96791;-68
2022/10/05 12:09:26;;;;;;;;;6.00;5.00;;;;;28.24;28.79;99475.81;6239263;28;96279;-68
2022/10/05 12:12:36;;;;;;;;;6.20;5.20;;;;;28.07;28.90;99472.97;6214103;28;96472;-68
2022/10/05 12:15:48;;;;;;;;;7.00;6.00;;;;;27.75;29.68;99481.69;6214296;28;96614;-69
2022/10/05 12:19:00;;;;;;;;;7.00;6.00;;;;;27.41;29.97;99480.38;6219568;28;96817;-67
2022/10/05 12:22:15;;;;;;;;;6.60;6.00;;;;;27.27;31.02;99470.53;6238718;28;96325;-68
2022/10/05 12:25:25;;;;;;;;;5.00;5.00;;;;;27.26;30.94;99472.47;6239022;28;96433;-67
2022/10/05 12:28:35;;;;;;;;;6.00;5.00;;;;;27.15;31.08;99476.63;6239035;28;96487;-67
2022/10/05 12:31:48;;;;;;;;;6.00;5.00;;;;;27.00;31.18;99464.00;6238927;28;96357;-68
2022/10/05 12:35:02;;;;;;;;;7.00;6.00;;;;;27.07;31.74;99463.56;6238440;28;96342;-69
2022/10/05 12:38:16;;;;;;;;;6.40;5.00;;;;;27.08;31.78;99467.94;6233901;28;96476;-69
2022/10/05 12:41:24;;;;;;;;;5.00;5.00;;;;;27.10;31.45;99460.16;6213719;28;96331;-69
2022/10/05 12:44:45;;;;;;;;;7.00;7.00;;;;;27.12;31.71;99460.69;6231998;28;96339;-68
2022/10/05 12:48:06;;;;;;;;;5.00;5.00;;;;;27.25;32.56;99458.94;6238560;28;97479;-69
2022/10/05 12:51:17;;;;;;;;;6.00;5.50;;;;;27.25;31.42;99459.75;6219248;28;96875;-68
2022/10/05 12:54:31;;;;;;;;;5.00;5.00;;;;;27.38;31.25;99460.78;6237909;28;96349;-67
2022/10/05 12:57:43;;;;;;;;;6.40;6.00;;;;;27.59;30.75;99450.81;6193825;28;96711;-68
2022/10/05 13:00:56;;;;;;;;;5.00;5.00;;;;;27.49;29.38;99445.56;6194994;28;96661;-68
2022/10/05 13:04:11;;;;;;;;;5.00;5.00;;;;;27.59;29.91;99448.06;6213432;28;96917;-68
2022/10/05 13:07:38;;;;;;;;;5.00;5.00;;;;;27.40;29.75;99439.97;6215890;28;96449;-68
2022/10/05 13:10:46;;;;;;;;;4.50;4.50;;;;;27.33;30.21;99423.00;6214885;28;97029;-68
2022/10/05 13:13:57;;;;;;;;;5.60;5.60;;;;;27.38;30.18;99419.25;6235078;28;96318;-67
2022/10/05 13:17:07;;;;;;;;;4.00;4.00;;;;;27.45;29.94;99425.97;6233663;28;96589;-67
2022/10/05 13:20:20;;;;;;;;;5.00;5.00;;;;;27.48;30.01;99430.88;6234819;28;96371;-67
2022/10/05 13:23:36;;;;;;;;;5.00;5.00;;;;;27.54;29.44;99435.16;6234674;28;96539;-67
2022/10/05 13:26:44;;;;;;;;;4.00;4.00;;;;;27.40;29.28;99422.53;6236712;28;96386;-67
2022/10/05 13:29:55;;;;;;;;;4.75;4.75;;;;;27.21;29.58;99417.25;6220099;28;96873;-68
2022/10/05 13:33:06;;;;;;;;;3.25;3.25;;;;;27.20;30.39;99414.78;6237815;28;96448;-68
2022/10/05 13:36:16;;;;;;;;;4.40;4.00;;;;;27.02;30.10;99403.66;6237911;28;96399;-68
2022/10/05 13:42:54;;;;;;;;;4.40;4.40;;;;;26.35;30.90;99386.22;6363060;27;95978;-68
2022/10/05 13:46:06;;;;;;;;;6.00;6.00;;;;;26.25;30.69;99405.81;6331791;27;96648;-68
2022/10/05 13:49:25;;;;;;;;;5.00;4.00;;;;;25.96;31.71;99414.44;6349540;27;96401;-68
2022/10/05 13:52:44;;;;;;;;;4.00;4.00;;;;;25.75;32.25;99414.09;6332388;27;96501;-68
2022/10/05 13:55:55;;;;;;;;;4.20;4.20;;;;;25.56;32.02;99407.06;6334711;27;96375;-67
2022/10/05 13:59:15;;;;;;;;;4.60;4.00;;;;;25.31;32.60;99398.13;6314099;27;96570;-67
2022/10/05 14:02:22;;;;;;;;;5.40;5.00;;;;;25.24;33.22;99403.22;6303741;27;96242;-67
2022/10/05 14:05:27;;;;;;;;;4.80;4.00;;;;;25.05;33.89;99409.94;6300970;27;96326;-68
2022/10/05 14:08:34;;;;;;;;;6.00;5.00;;;;;25.00;34.02;99414.44;6295617;27;97631;-69
2022/10/05 14:11:47;;;;;;;;;6.00;5.00;;;;;24.94;34.20;99409.31;6293208;27;96766;-69
2022/10/05 14:14:54;;;;;;;;;4.00;4.00;;;;;24.80;34.43;99403.72;6295640;27;97076;-69
2022/10/05 14:17:58;;;;;;;;;4.50;4.00;;;;;24.70;35.03;99394.81;6301731;27;97488;-68
2022/10/05 14:21:14;;;;;;;;;5.00;5.00;;;;;24.65;35.32;99383.88;6284402;27;96640;-67
2022/10/05 14:24:20;;;;;;;;;5.50;5.00;;;;;24.60;35.41;99385.59;6288057;27;96290;-69
2022/10/05 14:28:00;;;;;;;;;6.40;6.00;;;;;24.46;36.10;99364.63;6305093;27;98430;-68
2022/10/05 14:31:14;;;;;;;;;6.00;5.00;;;;;24.44;36.35;99370.41;6295452;27;97493;-69
2022/10/05 14:34:34;;;;;;;;;6.00;6.00;;;;;24.50;36.95;99371.97;6283490;27;96343;-69
2022/10/05 14:37:44;;;;;;;;;6.00;6.00;;;;;24.40;38.66;99379.59;6289492;27;96864;-68
2022/10/05 14:41:03;;;;;;;;;7.00;6.00;;;;;24.30;38.99;99371.47;6252890;27;96750;-69
2022/10/05 14:44:28;;;;;;;;;5.20;5.00;;;;;24.17;39.62;99376.66;6228653;27;96984;-68
2022/10/05 14:47:34;;;;;;;;;6.00;5.00;;;;;24.13;39.57;99370.06;6225016;27;96879;-67
2022/10/05 14:50:54;;;;;;;;;5.75;5.00;;;;;24.04;40.03;99377.34;6178535;27;96936;-69
2022/10/05 14:53:59;;;;;;;;;7.00;6.00;;;;;23.97;40.00;99376.91;6239856;27;96979;-67
2022/10/05 14:57:15;;;;;;;;;7.00;6.00;;;;;23.88;40.40;99372.38;6173626;28;97354;-68
2022/10/05 15:00:19;;;;;;;;;5.00;5.00;;;;;23.82;40.85;99374.38;6239056;27;97019;-68
2022/10/05 15:03:45;;;;;;;;;6.00;6.00;;;;;23.69;41.34;99370.44;6176621;27;97480;-67
2022/10/05 15:06:56;;;;;;;;;6.75;6.00;;;;;23.59;41.10;99361.50;6170982;27;96732;-69
2022/10/05 15:10:28;;;;;;;;;7.00;7.00;;;;;23.40;41.65;99357.84;6223233;27;96605;-67
2022/10/05 15:13:36;;;;;;;;;7.40;7.00;;;;;23.39;41.74;99359.78;6244733;27;96410;-67
2022/10/05 15:16:39;;;;;;;;;6.00;6.00;;;;;23.32;42.44;99359.31;6159690;28;96999;-67
2022/10/05 15:19:58;;;;;;;;;6.00;6.00;;;;;23.21;42.84;99357.81;6168755;27;96831;-67
2022/10/05 15:23:22;;;;;;;;;6.40;6.40;;;;;23.09;43.48;99352.72;6166152;27;96839;-67
2022/10/05 15:26:38;;;;;;;;;6.00;6.00;;;;;22.96;44.76;99339.66;6225018;27;98454;-69